Ana Sayfa
METAR-TAF:

METAR-TAF

Havaalanları :

Ciudad Victoria, Meksika

Enlem: 23-43N, Boylam: 098-58W, yükseklik: 238 m

Güncel hava durumu gözlemi

Rapor saat 13:44 UTC de 53 dakika önce yapıldı.
Rüzgar güneydoğudan 9 kt
Sıcaklık 27°C
Nem 70%
Basınç 1012 hPa
Görüş mesafesi: 12.9 km
Açık gökyüzü

METAR: MMCV 231344Z 14009KT 8SM SKC 27/21 A2988 RMK HZY ISOL AS

Saat: 09:37 (14:37 UTC)

Tahmin

Rapor saat 05:38 UTC de 8 saat ve 59 dakika önce yapıldı.
Ayın 23'si saat 06 UTC'den ayın 24'si saat 06 UTC'ye kadar geçerli Tahmin
Rüzgar doğudan 10 kt
Görüş mesafesi: 10 km
Açık gökyüzü
Ayın 23'si saat 1800 UTC'den
Rüzgar güneydoğudan 10 kt
Görüş mesafesi: 10 km
3000 ft yükseklikte parçalı bulutlu
Geçici
ayın 23'si saat 22 UTC'den ayın 24'si saat 02 UTC'ye kadar
İstasyon Civarında/ Çevresinde

TAF: MMCV 230538Z 2306/2406 09010KT P6SM SKC FM231800 14010KT P6SM SCT030 TEMPO 2322/2402 VC CB

4.000'den fazla havaalanı için hava durumu gözlemleri ve tahminleri (METAR ve TAF raporları).

Kullanılabilir istasyonlar harita üzerinde sarı ve kırmızı noktalarla gösterilir.

İstasyonun adını görmek için fareyi noktanın üzerinde gezdirin.

Sonrasında hava gözlem ve tahminlerini görmek için tıklayın.

Haritayı değiştirmek için: yaklaştırmak için siyah artı işaretli yeşil düğmeye ve uzaklaştırmak için de eksi işaretli düğmeye hızla tıklayın; bitişik haritalar için yeşil okları kullanın.


METAR-TAF: